Winters Aire Park Airport

CFY4 · 艾伯塔, 加拿大

罗盘
风向 的 风向 120° Winters Aire Park Airport 9/27
风: 9 kt, 3 beaufort

8 kt

5 kt
改变
0 1.000 2.000 3.000 4.000 5.000
SCT 1.600 ft
BKN 2.700 ft
SPECI CYYC 300600Z 12009KT 6SM IC SCT016 BKN027 M18/M21 A2997 RMK SC3SC4 SLP247

METAR Winters Aire Park Airport - CFY4

Winters Aire Park Airport是,加拿大中的小机场。 该机场有2条跑道: 9/27 和 16/34. 该领域的国际民航组织标志是CFY4.

这份报告是针对2022年11月29日 23:00, 当地时间在Calgary International Airport进行的。

机场观察

风向为120°,速度为9 kt。

可见度为6 mi。

有疏云,零星散落的云朵在1.600 ft的高度 和 碎云在2.700 ft的高度。 破损或更高的上限为2.700 ft。

当前天气为冰晶。 温度为-18 °C,阵风为-30 °C。 露点为-21 °C,相对湿度为78%。 海平面上的气压为29,97 inHg (QNH)。

白天

今天,太阳从08:14升起,在16:33降落。 这适用于Winters Aire Park Airport,世界夏令时可能有所不同。 当地时间与世界标准时间之间的时差为-7 小时。 当前,没有夏令时有效。

公司介绍

我们没有关于这个机场的公司信息。

体会

到Vliegles.nl去找飞行课程,跳伞和其他飞行体验。 浏览页面,了解Winters Aire Park Airport附近所有可用的活动。 你也可以使用搜索功能来寻找你所在地附近的特定飞行课程、跳伞或其他飞行体验。

跑道

Id 标题 侧风 逆风 侧风 %
9/27 090°-270° 5 kt 8 kt 50 %
16/34 160°-340° 6 kt 7 kt 64 %

逆风成分最大的方向会被突出显示,并用于横风计算。 这并不一定意味着这个方向在使用。

乌云

1.600 ft SCT 疏云,零星散落的云朵
2.700 ft BKN 碎云

温度 & 天气

天气 冰晶
温度 -18 °C
露点 -21 °C
相对湿度 78%
风寒 -30 °C
Kp-index 1 (0-9)

评论

SLP247海平面压力为30,26 inHg (30,26 inHg)
SC3SC4

白天

日出
08:16 (8:20)
中午
12:24
日落
16:33

小工具

你想在你的网站上有一个关于Winters Aire Park Airport的当前航空天气(METAR)的小部件吗?

显示HTML代码

我们和第三方通过cookies跟踪您在我们网站上的互联网行为。如果你继续,我们认为你同意我们的饼干政策